Etusivu
METAR-TAF:

METAR-TAF

Lentoasemat :

A.L. Mangham Jr. Regional Airport

Nacogdoches, Texas, Yhdysvallat

Leveyspiiri: 31-35N, Pituuspiiri: 094-43W, korkeus merenpinnasta: 108 m

Tämänhetkinen sää

Tämä raportti tehtiin 30 minuuttia sitten, kello 03.56 UTC
tyyntä
Lämpötila 4°C
Kosteus 81%
Ilmanpaine 1028 hPa
Näkyvyys: 16.1 km
selkeää

METAR: KOCH 290356Z AUTO 00000KT 10SM CLR 04/01 A3036 RMK AO2 SLP286 T00390006

Aika: 22:26 (04:26 UTC)


TAF: puuttuu

Säähavainnot ja -ennusteet yli 4000 lentoasemalta (METAR- ja TAF-raportit).

Käytössä olevat sääasemat on merkitty karttaan keltaisilla ja punaisilla pisteillä.

Aseta hiiri pisteen päälle nähdäksesi sääaseman nimen.

Klikkaa sitten nähdäksesi säähavainnot ja -ennusteet.

Kartan vaihtaminen: klikkaa mustalla rastilla varustettuja vihreitä pisteitä, niin voit zoomata sisään; viivalla varustettua vihreää pistettä, niin voit zoomata ulos tai vihreitä nuolia, niin pääset viereisille kartoille.


METAR-TAF: